CHICAGO AURORA MUNICIPAL, IL, United States (KARR) 41-46N 088-28W 215M
Wind: from the W (270 degrees) at 5 MPH (4 KT):0
Visibility: 10 mile(s):0
Sky conditions: clear
Temperature: 35.1 F (1.7 C)
Dew Point: 34.0 F (1.1 C)
Relative Humidity: 95%
Pressure (altimeter): 30.13 in. Hg (1020 hPa)
Pressure tendency: 0.02 inches (0.8 hPa) higher than three hours ago
ob: KARR 261152Z 27004KT 10SM CLR 02/01 A3013 RMK AO2 SLP208 7//// T00170011 10061 20017 53008
Raw METAR:KARR 261152Z 27004KT 10SM CLR 02/01 A3013 RMK AO2 SLP208 7//// T00170011 10061 20017 53008
cycle: 12
Back to top

CHICAGO/WEST CH DUPAGE, IL, United States (KDPA) 41-54N 88-15W 230M
Wind: from the NW (320 degrees) at 5 MPH (4 KT):0
Visibility: 10 mile(s):0
Sky conditions: clear
Temperature: 39.9 F (4.4 C)
Dew Point: 36.0 F (2.2 C)
Relative Humidity: 85%
Pressure (altimeter): 30.12 in. Hg (1019 hPa)
Pressure tendency: 0.02 inches (0.7 hPa) higher than three hours ago
ob: KDPA 261152Z 32004KT 10SM CLR 04/02 A3012 RMK AO2 SLP205 70021 T00440022 10078 20033 52007
Raw METAR:KDPA 261152Z 32004KT 10SM CLR 04/02 A3012 RMK AO2 SLP205 70021 T00440022 10078 20033 52007
cycle: 12
Back to top

De Kalb, De Kalb Taylor Municipal Airport, IL, United States (KDKB) 41-55-55N 088-42-30W
Wind: from the NW (320 degrees) at 5 MPH (4 KT):0
Visibility: 10 mile(s):0
Sky conditions: clear
Temperature: 34.3 F (1.3 C)
Windchill: 30 F (-1 C):1
Dew Point: 33.3 F (0.7 C)
Relative Humidity: 95%
Pressure (altimeter): 30.15 in. Hg (1020 hPa)
ob: KDKB 261215Z AUTO 32004KT 10SM CLR 01/01 A3015 RMK AO2 T00130007
Raw METAR:KDKB 261215Z AUTO 32004KT 10SM CLR 01/01 A3015 RMK AO2 T00130007
cycle: 12
Back to top

Joliet, Joliet Regional Airport, IL, United States (KJOT) 41-31-05N 088-10-31W
Wind: from the N (360 degrees) at 6 MPH (5 KT):0
Visibility: 10 mile(s):0
Sky conditions: overcast
Temperature: 43.9 F (6.6 C)
Dew Point: 41.0 F (5.0 C)
Relative Humidity: 89%
Pressure (altimeter): 30.13 in. Hg (1020 hPa)
ob: KJOT 261215Z AUTO 36005KT 10SM OVC042 07/05 A3013 RMK AO2 T00660050
Raw METAR:KJOT 261215Z AUTO 36005KT 10SM OVC042 07/05 A3013 RMK AO2 T00660050
cycle: 12
Back to top

Kankakee, Greater Kankakee Airport, IL, United States (KIKK) 41-04-17N 087-50-47W
Wind: Calm:0
Visibility: 10 mile(s):0
Sky conditions: mostly cloudy
Temperature: 44 F (7 C)
Dew Point: 42 F (6 C)
Relative Humidity: 93%
Pressure (altimeter): 30.12 in. Hg (1019 hPa)
ob: KIKK 261215Z AUTO 00000KT 10SM SCT032 BKN042 07/06 A3012 RMK AO2
Raw METAR:KIKK 261215Z AUTO 00000KT 10SM SCT032 BKN042 07/06 A3012 RMK AO2
cycle: 12
Back to top

Morris, Morris Municipal-James R Washburn Field Airport, IL, United States (KC09) 41-25-31N 088-25-07W
Wind: Calm:0
Visibility: 10 mile(s):0
Sky conditions: clear
Temperature: 38.8 F (3.8 C)
Dew Point: 38.8 F (3.8 C)
Relative Humidity: 100%
Pressure (altimeter): 30.12 in. Hg (1019 hPa)
ob: KC09 261235Z AUTO 00000KT 10SM CLR 04/04 A3012 RMK AO2 T00380038
Raw METAR:KC09 261235Z AUTO 00000KT 10SM CLR 04/04 A3012 RMK AO2 T00380038
cycle: 12
Back to top

Peru, Illinois Valley Regional-Walter A Duncan Field Airport, IL, United States (KVYS) 41-21-07N 089-09-11W
Wind: from the NNE (020 degrees) at 6 MPH (5 KT):0
Visibility: 10 mile(s):0
Sky conditions: clear
Temperature: 37.8 F (3.2 C)
Dew Point: 35.8 F (2.1 C)
Relative Humidity: 92%
Pressure (altimeter): 30.13 in. Hg (1020 hPa)
ob: KVYS 261215Z AUTO 02005KT 10SM CLR 03/02 A3013 RMK AO2 T00320021
Raw METAR:KVYS 261215Z AUTO 02005KT 10SM CLR 03/02 A3013 RMK AO2 T00320021
cycle: 12
Back to top

Rochelle, Rochelle Municipal-Koritz Field Airport, IL, United States (KRPJ) 41-53-35N 089-04-42W
Wind: Calm:0
Visibility: 10 mile(s):0
Sky conditions: clear
Temperature: 33.6 F (0.9 C)
Dew Point: 33.1 F (0.6 C)
Relative Humidity: 97%
Pressure (altimeter): 30.15 in. Hg (1020 hPa)
ob: KRPJ 261215Z AUTO 00000KT 10SM CLR 01/01 A3015 RMK AO2 T00090006
Raw METAR:KRPJ 261215Z AUTO 00000KT 10SM CLR 01/01 A3015 RMK AO2 T00090006
cycle: 12
Back to top